Causapscal, Canada
Current Conditions -  °F | °C
As of 1:00 AM on Wednesday 22 Oct 2014 (Local Time) from CYYY Reporting Station
Clear Clear  
Wind Chill: 24°   Ceiling: Unl
Heat Index: 30°   Visibility: 30mi
Dew Point: 27°   Wind: 6mph
Humidity: 86%   Direction: 140°SE
Pressure: 30.37"   Gusts: NA
Location:  48.35°N, 67.22°W
Report Text: CYYY 220500Z 14005KT 30SM SKC M01/M03 A3037 RMK SLP288
Loading
Personal Weather Stations






























Interactive Weather Map
Tropical Storm Tracking
New forecast layout! Learn more

10-Day Weather Forecast

Advertisements
Track Severe Weather on mobile